General Aviation Weather

Text Reports

Enter one or more of the following location identifiers separated by a space:

Zip Code, Four-Character ICAO or Three-Character IATA airport codes.

METAR - Aviation Routine Weather Report
KPTW - Pottstown, Pennsylvania
Updated at 8:54 PM GMT on April 17, 2014 (4:54 PM EDT):
METAR KPTW 172054Z AUTO VRB06KT 10SM CLR 10/M01 A3061 RMK AO2 SLP363 T01001011 56017
TAF - Terminal Area Forecast
KPTW - Pottstown, Pennsylvania
Updated at 8:54 PM GMT on April 17, 2014 (4:54 PM EDT):
No TAF is currently available for this location.
Decoded:
No decoded TAF is available.
PIREP - Pilot Weather Report
KPTW - Pottstown, Pennsylvania
Updated at 8:54 PM GMT on April 17, 2014 (4:54 PM EDT):
No PIREP is currently available for this location.
AIRMET - Airmens Meteorological Information
KPTW - Pottstown, Pennsylvania
Updated at 8:54 PM GMT on April 17, 2014 (4:54 PM EDT):
No AIRMET is currently available for this location.
SIGMET - Significant Meteorological Information
KPTW - Pottstown, Pennsylvania
Updated at 8:54 PM GMT on April 17, 2014 (4:54 PM EDT):
No SIGMET is currently available for this location.
NOTAM - Notice to Airmen
KPTW - Pottstown, Pennsylvania
Updated at 8:54 PM GMT on April 17, 2014 (4:54 PM EDT):
No NOTAM is currently available for this location.
Forecast Area
KPTW - Pottstown, Pennsylvania
Updated at 8:54 PM GMT on April 17, 2014 (4:54 PM EDT):
No NOTAM is currently available for this location.
Aviation Weather Maps